createdAt,value
2022-08-25T00:00:23.985Z,80.40
2022-08-25T00:03:09.436Z,80.40
2022-08-25T00:05:39.049Z,80.33
2022-08-25T00:08:22.095Z,80.55
2022-08-25T00:10:53.977Z,80.70
2022-08-25T00:13:33.747Z,80.98
2022-08-25T00:16:19.163Z,80.90
2022-08-25T00:19:09.533Z,80.89
2022-08-25T00:21:42.553Z,80.98
2022-08-25T00:24:14.172Z,80.95
2022-08-25T00:26:49.220Z,81.20
2022-08-25T00:29:20.134Z,81.04
2022-08-25T00:31:49.994Z,81.16
2022-08-25T00:34:37.290Z,81.55
2022-08-25T00:37:10.111Z,81.42
2022-08-25T00:39:41.012Z,81.23
2022-08-25T00:42:11.751Z,81.20
2022-08-25T00:44:46.689Z,81.20
2022-08-25T00:47:17.019Z,81.23
2022-08-25T00:49:54.898Z,81.19
2022-08-25T00:52:32.668Z,81.15
2022-08-25T00:55:10.827Z,81.37
2022-08-25T00:57:50.874Z,81.28
2022-08-25T01:00:40.247Z,81.62
2022-08-25T01:03:09.839Z,81.44
2022-08-25T01:05:40.335Z,81.51
2022-08-25T01:08:11.130Z,81.60
2022-08-25T01:10:50.503Z,81.44
2022-08-25T01:13:39.659Z,81.51
2022-08-25T01:16:09.700Z,81.58
2022-08-25T01:18:50.416Z,81.45
2022-08-25T01:21:23.189Z,81.45
2022-08-25T01:23:53.837Z,81.41
2022-08-25T01:26:30.541Z,81.53
2022-08-25T01:29:25.109Z,81.48
2022-08-25T01:32:05.231Z,81.50
2022-08-25T01:34:38.067Z,81.47
2022-08-25T01:37:08.658Z,81.48
2022-08-25T01:39:44.327Z,81.38
2022-08-25T01:42:24.253Z,81.40
2022-08-25T01:45:08.316Z,81.42
2022-08-25T01:47:39.234Z,81.34
2022-08-25T01:50:09.052Z,81.35
2022-08-25T01:52:56.940Z,81.55
2022-08-25T01:55:26.928Z,81.71
2022-08-25T01:57:59.360Z,81.67
2022-08-25T02:00:29.049Z,81.77
2022-08-25T02:02:59.273Z,81.83
2022-08-25T02:05:30.205Z,81.83
2022-08-25T02:08:02.658Z,81.82
2022-08-25T02:10:34.472Z,81.77
2022-08-25T02:13:06.270Z,81.74
2022-08-25T02:15:55.205Z,81.78
2022-08-25T02:18:25.142Z,81.74
2022-08-25T02:21:08.138Z,81.76
2022-08-25T02:23:38.572Z,81.82
2022-08-25T02:26:08.899Z,81.82
2022-08-25T02:28:38.831Z,81.99
2022-08-25T02:31:08.591Z,81.95
2022-08-25T02:33:38.033Z,82.15
2022-08-25T02:36:07.868Z,82.13
2022-08-25T02:38:38.853Z,82.11
2022-08-25T02:41:30.935Z,82.30
2022-08-25T02:44:03.314Z,82.24
2022-08-25T02:49:42.453Z,82.85
2022-08-25T02:52:26.046Z,82.91
2022-08-25T02:54:56.330Z,82.86
2022-08-25T02:57:38.834Z,82.74
2022-08-25T03:00:12.860Z,82.60
2022-08-25T03:02:43.072Z,82.60
2022-08-25T03:05:14.321Z,82.66
2022-08-25T03:07:44.287Z,82.78
2022-08-25T03:10:17.983Z,82.81
2022-08-25T03:12:48.392Z,82.80
2022-08-25T03:15:19.031Z,82.75
2022-08-25T03:17:52.480Z,82.81
2022-08-25T03:20:24.888Z,82.85
2022-08-25T03:22:54.366Z,82.85
2022-08-25T03:25:42.114Z,82.89
2022-08-25T03:28:11.940Z,82.81
2022-08-25T03:30:44.636Z,82.61
2022-08-25T03:33:14.468Z,82.50
2022-08-25T03:35:45.142Z,82.26
2022-08-25T03:38:17.829Z,82.12
2022-08-25T03:40:50.511Z,82.07
2022-08-25T03:43:20.910Z,82.14
2022-08-25T03:45:52.234Z,82.20
2022-08-25T03:48:21.457Z,82.33
2022-08-25T03:50:52.319Z,82.42
2022-08-25T03:53:22.534Z,82.52
2022-08-25T03:55:51.773Z,82.69
2022-08-25T03:58:21.335Z,82.73
2022-08-25T04:00:50.457Z,82.62
2022-08-25T04:03:23.799Z,82.62
2022-08-25T04:06:01.138Z,82.75
2022-08-25T04:08:29.959Z,82.82
2022-08-25T04:11:00.865Z,82.85
2022-08-25T04:13:30.688Z,82.85
2022-08-25T04:15:59.632Z,82.83
2022-08-25T04:18:31.730Z,83.03
2022-08-25T04:21:06.956Z,82.87
2022-08-25T04:23:42.177Z,83.09
2022-08-25T04:26:14.514Z,83.34
2022-08-25T04:29:00.998Z,83.45
2022-08-25T04:31:31.813Z,83.55
2022-08-25T04:34:28.369Z,83.58
2022-08-25T04:36:56.195Z,83.72
2022-08-25T04:39:25.834Z,83.64
2022-08-25T04:41:55.959Z,83.87
2022-08-25T04:44:38.388Z,83.68
2022-08-25T04:47:14.167Z,83.56
2022-08-25T04:49:48.833Z,83.67
2022-08-25T04:52:21.414Z,83.78
2022-08-25T04:54:50.317Z,83.65
2022-08-25T04:57:19.215Z,83.66
2022-08-25T04:59:48.206Z,83.79
2022-08-25T05:02:17.501Z,83.81
2022-08-25T05:04:53.654Z,83.77
2022-08-25T05:07:25.657Z,83.80
2022-08-25T05:09:54.806Z,83.92
2022-08-25T05:12:24.385Z,83.96
2022-08-25T05:14:54.802Z,83.94
2022-08-25T05:17:23.921Z,83.96
2022-08-25T05:19:53.672Z,84.06
2022-08-25T05:22:23.403Z,84.13
2022-08-25T05:24:53.340Z,84.06
2022-08-25T05:27:23.030Z,84.06
2022-08-25T05:29:53.966Z,84.05
2022-08-25T05:32:23.866Z,84.30
2022-08-25T05:34:54.953Z,84.34
2022-08-25T05:37:28.630Z,84.45
2022-08-25T05:39:59.397Z,84.51
2022-08-25T05:42:29.386Z,84.52
2022-08-25T05:44:59.444Z,84.72
2022-08-25T05:47:29.286Z,84.84
2022-08-25T05:50:01.677Z,84.98
2022-08-25T05:52:30.974Z,84.94
2022-08-25T05:55:00.591Z,85.03
2022-08-25T05:57:30.411Z,84.98
2022-08-25T06:00:02.187Z,85.05
2022-08-25T06:02:44.713Z,84.99
2022-08-25T06:05:19.254Z,85.08
2022-08-25T06:07:52.084Z,85.06
2022-08-25T06:10:22.741Z,85.06
2022-08-25T06:12:59.236Z,85.10
2022-08-25T06:15:36.177Z,84.87
2022-08-25T06:18:06.674Z,85.00
2022-08-25T06:20:39.495Z,85.07
2022-08-25T06:23:14.047Z,85.07
2022-08-25T06:25:50.607Z,85.08
2022-08-25T06:28:24.034Z,85.04
2022-08-25T06:31:02.162Z,85.13
2022-08-25T06:33:32.142Z,85.08
2022-08-25T06:36:01.638Z,85.03
2022-08-25T06:38:30.799Z,85.07
2022-08-25T06:41:03.780Z,85.01
2022-08-25T06:43:35.779Z,85.08
2022-08-25T06:46:18.231Z,85.03
2022-08-25T06:48:47.864Z,85.07
2022-08-25T06:51:20.220Z,85.10
2022-08-25T06:53:50.975Z,85.15
2022-08-25T06:56:21.965Z,85.08
2022-08-25T06:59:07.453Z,85.18
2022-08-25T07:01:37.783Z,85.23
2022-08-25T07:04:12.840Z,85.36
2022-08-25T07:06:43.871Z,85.31
2022-08-25T07:09:14.807Z,85.42
2022-08-25T07:11:46.265Z,85.44
2022-08-25T07:14:18.813Z,85.48
2022-08-25T07:16:50.310Z,85.48
2022-08-25T07:19:21.269Z,85.54
2022-08-25T07:21:53.336Z,85.68
2022-08-25T07:24:23.987Z,85.76
2022-08-25T07:26:53.932Z,85.76
2022-08-25T07:29:32.635Z,85.88
2022-08-25T07:32:05.428Z,85.83
2022-08-25T07:34:53.584Z,85.70
2022-08-25T07:37:47.552Z,85.83
2022-08-25T07:40:18.323Z,85.73
2022-08-25T07:42:52.080Z,85.74
2022-08-25T07:45:30.409Z,85.73
2022-08-25T07:48:13.325Z,85.84
2022-08-25T07:50:47.937Z,85.76
2022-08-25T07:53:17.860Z,85.78
2022-08-25T07:55:47.928Z,85.88
2022-08-25T07:58:19.055Z,85.93
2022-08-25T08:00:50.728Z,85.86
2022-08-25T08:03:35.504Z,85.89
2022-08-25T08:06:13.814Z,85.78
2022-08-25T08:08:59.027Z,85.67
2022-08-25T08:11:51.446Z,85.76
2022-08-25T08:14:24.218Z,85.73
2022-08-25T08:16:54.728Z,85.98
2022-08-25T08:19:24.250Z,85.74
2022-08-25T08:21:56.418Z,85.84
2022-08-25T08:24:44.335Z,85.73
2022-08-25T08:27:18.508Z,85.64
2022-08-25T08:29:48.966Z,85.51
2022-08-25T08:32:18.881Z,85.61
2022-08-25T08:34:51.190Z,85.58
2022-08-25T08:37:23.352Z,85.54
2022-08-25T08:39:53.400Z,85.58
2022-08-25T08:42:47.277Z,85.76
2022-08-25T08:45:40.541Z,85.79
2022-08-25T08:48:19.449Z,85.81
2022-08-25T08:51:22.978Z,85.80
2022-08-25T08:53:57.548Z,86.07
2022-08-25T08:56:52.832Z,86.12
2022-08-25T08:59:48.746Z,86.16
2022-08-25T09:02:51.375Z,86.04
2022-08-25T09:05:26.945Z,86.22
2022-08-25T09:08:14.034Z,85.94
2022-08-25T09:11:10.298Z,86.25
2022-08-25T09:14:11.669Z,86.02
2022-08-25T09:16:56.401Z,86.08
2022-08-25T09:19:50.744Z,86.05
2022-08-25T09:22:46.736Z,85.84
2022-08-25T09:25:29.560Z,86.00
2022-08-25T09:28:25.265Z,85.84
2022-08-25T09:31:21.033Z,85.55
2022-08-25T09:33:57.495Z,85.71
2022-08-25T09:36:28.177Z,85.99
2022-08-25T09:38:58.585Z,85.71
2022-08-25T09:41:51.260Z,85.73
2022-08-25T09:44:26.058Z,85.49
2022-08-25T09:47:02.474Z,85.53
2022-08-25T09:50:04.442Z,85.55
2022-08-25T09:52:41.380Z,84.98
2022-08-25T09:55:32.779Z,84.35
2022-08-25T09:58:17.771Z,84.55
2022-08-25T10:01:17.172Z,84.28
2022-08-25T10:03:58.343Z,84.01
2022-08-25T10:06:47.490Z,83.76
2022-08-25T10:09:40.834Z,83.69
2022-08-25T10:12:35.756Z,83.48
2022-08-25T10:15:38.767Z,83.49
2022-08-25T10:18:26.420Z,83.47
2022-08-25T10:21:36.186Z,82.87
2022-08-25T10:24:18.611Z,83.04
2022-08-25T10:27:28.606Z,83.20
2022-08-25T10:30:19.326Z,82.96
2022-08-25T10:32:58.068Z,82.68
2022-08-25T10:35:35.493Z,82.48
2022-08-25T10:38:11.885Z,82.51
2022-08-25T10:40:50.508Z,82.27
2022-08-25T10:43:47.769Z,82.63
2022-08-25T10:46:31.686Z,82.19
2022-08-25T10:49:19.744Z,82.02
2022-08-25T10:52:00.949Z,82.26
2022-08-25T10:54:35.360Z,82.46
2022-08-25T10:57:41.984Z,81.99
2022-08-25T11:00:16.804Z,81.36
2022-08-25T11:03:05.248Z,81.74
2022-08-25T11:06:35.664Z,81.23
2022-08-25T11:09:09.967Z,80.88
2022-08-25T11:12:19.466Z,80.38
2022-08-25T11:14:52.635Z,80.79
2022-08-25T11:17:38.648Z,80.33
2022-08-25T11:20:26.483Z,80.01
2022-08-25T11:23:21.006Z,80.51
2022-08-25T11:26:00.265Z,80.49
2022-08-25T11:28:43.746Z,80.54
2022-08-25T11:31:16.301Z,80.13
2022-08-25T11:33:46.544Z,79.41
2022-08-25T11:36:37.576Z,79.55
2022-08-25T11:39:34.595Z,79.40
2022-08-25T11:42:06.540Z,79.22
2022-08-25T11:44:56.248Z,78.69
2022-08-25T11:47:50.506Z,79.78
2022-08-25T11:50:35.657Z,80.09
2022-08-25T11:53:30.430Z,79.17
2022-08-25T11:56:05.858Z,79.13
2022-08-25T11:58:52.695Z,79.06
2022-08-25T12:01:43.264Z,77.77
2022-08-25T12:04:44.284Z,77.40
2022-08-25T12:07:22.985Z,76.90
2022-08-25T12:09:55.264Z,77.06
2022-08-25T12:12:32.058Z,76.34
2022-08-25T12:15:32.701Z,76.03
2022-08-25T12:18:28.174Z,76.58
2022-08-25T12:20:57.185Z,76.36
2022-08-25T12:23:29.040Z,76.45
2022-08-25T12:26:05.257Z,76.02
2022-08-25T12:28:54.626Z,76.29
2022-08-25T12:31:51.605Z,76.41
2022-08-25T12:34:46.696Z,75.62
2022-08-25T12:37:19.046Z,75.38
2022-08-25T12:39:51.248Z,74.84
2022-08-25T12:42:46.255Z,75.01
2022-08-25T12:45:21.423Z,75.05
2022-08-25T12:47:52.454Z,74.41
2022-08-25T12:50:39.940Z,74.60
2022-08-25T12:53:12.167Z,73.74
2022-08-25T12:55:48.471Z,73.72
2022-08-25T12:58:18.610Z,73.54
2022-08-25T13:01:27.569Z,73.25
2022-08-25T13:04:13.939Z,72.84
2022-08-25T13:06:59.392Z,72.75
2022-08-25T13:10:07.224Z,72.02
2022-08-25T13:13:01.762Z,71.89
2022-08-25T13:15:48.964Z,72.07
2022-08-25T13:18:33.238Z,70.94
2022-08-25T13:21:15.449Z,71.08
2022-08-25T13:23:48.174Z,70.25
2022-08-25T13:26:48.219Z,70.65
2022-08-25T13:29:23.593Z,70.06
2022-08-25T13:32:14.512Z,70.01
2022-08-25T13:35:17.613Z,69.66
2022-08-25T13:37:50.393Z,69.12
2022-08-25T13:40:29.704Z,68.36
2022-08-25T13:43:02.811Z,68.22
2022-08-25T13:45:41.595Z,68.45
2022-08-25T13:48:21.230Z,68.62
2022-08-25T13:50:52.739Z,68.37
2022-08-25T13:53:24.764Z,68.36
2022-08-25T13:56:02.435Z,68.04
2022-08-25T13:58:44.302Z,67.70
2022-08-25T14:01:48.703Z,66.44
2022-08-25T14:04:34.367Z,66.44
2022-08-25T14:07:25.084Z,66.18
2022-08-25T14:10:11.421Z,65.96
2022-08-25T14:12:45.915Z,65.60
2022-08-25T14:15:27.755Z,64.35
2022-08-25T14:18:05.065Z,63.92
2022-08-25T14:20:36.042Z,64.10
2022-08-25T14:23:10.932Z,64.42
2022-08-25T14:25:40.533Z,64.06
2022-08-25T14:28:18.080Z,63.56
2022-08-25T14:31:06.075Z,63.33
2022-08-25T14:33:40.348Z,63.61
2022-08-25T14:36:09.505Z,63.41
2022-08-25T14:38:41.216Z,62.06
2022-08-25T14:41:12.975Z,62.73
2022-08-25T14:43:44.259Z,62.67
2022-08-25T14:46:30.063Z,62.93
2022-08-25T14:49:01.805Z,62.38
2022-08-25T14:51:36.638Z,61.61
2022-08-25T14:54:15.385Z,61.02
2022-08-25T14:56:49.920Z,60.82
2022-08-25T14:59:21.721Z,61.03
2022-08-25T15:01:55.969Z,60.06
2022-08-25T15:07:31.366Z,59.86
2022-08-25T15:10:07.502Z,59.76
2022-08-25T15:12:47.681Z,60.44
2022-08-25T15:15:28.570Z,60.44
2022-08-25T15:18:05.735Z,60.30
2022-08-25T15:20:44.014Z,59.78
2022-08-25T15:23:18.922Z,59.60
2022-08-25T15:25:53.561Z,59.67
2022-08-25T15:31:10.478Z,59.79
2022-08-25T15:33:45.078Z,60.08
2022-08-25T15:39:06.154Z,59.83
2022-08-25T15:41:58.725Z,59.98
2022-08-25T15:44:42.067Z,59.80
2022-08-25T15:47:24.485Z,59.59
2022-08-25T15:50:17.382Z,59.31
2022-08-25T15:52:47.518Z,59.86
2022-08-25T15:55:17.966Z,59.49
2022-08-25T15:57:49.700Z,59.65
2022-08-25T16:00:18.878Z,59.81
2022-08-25T16:02:47.633Z,59.91
2022-08-25T16:05:16.331Z,59.77
2022-08-25T16:07:51.505Z,60.00
2022-08-25T16:10:21.882Z,60.29
2022-08-25T16:13:05.377Z,60.21
2022-08-25T16:15:35.927Z,59.89
2022-08-25T16:18:06.364Z,60.22
2022-08-25T16:20:37.111Z,60.25
2022-08-25T16:23:06.078Z,60.55
2022-08-25T16:25:40.575Z,60.60
2022-08-25T16:28:14.117Z,60.72
2022-08-25T16:30:52.592Z,60.87
2022-08-25T16:33:22.385Z,61.18
2022-08-25T16:35:51.035Z,61.29
2022-08-25T16:38:19.982Z,61.45
2022-08-25T16:40:48.946Z,61.50
2022-08-25T16:43:21.380Z,61.36
2022-08-25T16:45:59.129Z,61.37
2022-08-25T16:48:34.267Z,61.39
2022-08-25T16:51:22.598Z,61.29
2022-08-25T16:54:21.902Z,61.53
2022-08-25T16:56:53.715Z,61.81
2022-08-25T16:59:25.033Z,61.89
2022-08-25T17:01:54.796Z,61.92
2022-08-25T17:04:37.487Z,62.00
2022-08-25T17:07:08.159Z,62.48
2022-08-25T17:09:37.510Z,62.73
2022-08-25T17:12:06.536Z,62.72
2022-08-25T17:14:35.953Z,62.98
2022-08-25T17:17:07.004Z,63.15
2022-08-25T17:19:43.135Z,63.38
2022-08-25T17:22:17.508Z,63.57
2022-08-25T17:24:47.332Z,63.79
2022-08-25T17:27:30.896Z,64.06
2022-08-25T17:30:00.057Z,64.09
2022-08-25T17:32:30.441Z,64.55
2022-08-25T17:35:00.138Z,64.74
2022-08-25T17:37:28.975Z,64.92
2022-08-25T17:40:03.276Z,64.97
2022-08-25T17:42:34.467Z,65.02
2022-08-25T17:45:05.953Z,65.23
2022-08-25T17:47:37.108Z,65.50
2022-08-25T17:50:06.913Z,65.54
2022-08-25T17:52:36.341Z,65.83
2022-08-25T17:55:08.701Z,65.96
2022-08-25T17:57:40.808Z,66.13
2022-08-25T18:00:12.673Z,66.46
2022-08-25T18:02:43.988Z,66.54
2022-08-25T18:05:29.576Z,66.84
2022-08-25T18:08:15.056Z,66.84
2022-08-25T18:10:58.807Z,67.01
2022-08-25T18:13:45.747Z,67.23
2022-08-25T18:16:29.491Z,67.31
2022-08-25T18:18:59.505Z,67.56
2022-08-25T18:21:31.172Z,67.64
2022-08-25T18:24:02.886Z,67.79
2022-08-25T18:26:35.835Z,68.01
2022-08-25T18:29:05.947Z,68.25
2022-08-25T18:31:36.417Z,68.34
2022-08-25T18:34:14.165Z,68.47
2022-08-25T18:36:46.022Z,68.60
2022-08-25T18:39:35.782Z,68.82
2022-08-25T18:42:07.086Z,69.00
2022-08-25T18:44:54.288Z,69.15
2022-08-25T18:47:24.759Z,69.33
2022-08-25T18:49:55.450Z,69.52
2022-08-25T18:52:25.134Z,69.55
2022-08-25T18:54:55.598Z,69.79
2022-08-25T18:57:25.055Z,69.86
2022-08-25T18:59:55.097Z,69.96
2022-08-25T19:02:25.376Z,70.21
2022-08-25T19:04:56.092Z,70.23
2022-08-25T19:07:40.329Z,70.50
2022-08-25T19:10:09.927Z,70.55
2022-08-25T19:12:54.682Z,70.67
2022-08-25T19:15:27.843Z,70.83
2022-08-25T19:17:59.566Z,70.89
2022-08-25T19:20:32.517Z,71.01
2022-08-25T19:23:15.990Z,71.16
2022-08-25T19:25:45.902Z,71.18
2022-08-25T19:28:17.627Z,71.39
2022-08-25T19:30:50.638Z,71.47
2022-08-25T19:33:43.955Z,71.59
2022-08-25T19:36:16.076Z,71.65
2022-08-25T19:38:45.257Z,71.77
2022-08-25T19:41:15.231Z,72.01
2022-08-25T19:43:57.577Z,71.87
2022-08-25T19:46:35.811Z,72.06
2022-08-25T19:49:16.326Z,72.28
2022-08-25T19:51:51.395Z,72.51
2022-08-25T19:54:25.952Z,72.36
2022-08-25T19:57:11.133Z,72.63
2022-08-25T19:59:44.588Z,72.63
2022-08-25T20:02:19.171Z,72.51
2022-08-25T20:04:50.653Z,72.90
2022-08-25T20:07:24.132Z,72.65
2022-08-25T20:09:55.728Z,72.70
2022-08-25T20:12:26.466Z,72.71
2022-08-25T20:14:57.119Z,72.80
2022-08-25T20:17:28.608Z,72.85
2022-08-25T20:20:04.861Z,72.97
2022-08-25T20:22:34.905Z,72.85
2022-08-25T20:25:27.785Z,72.83
2022-08-25T20:28:06.476Z,73.01
2022-08-25T20:30:45.557Z,73.22
2022-08-25T20:33:14.195Z,73.17
2022-08-25T20:35:53.224Z,73.13
2022-08-25T20:38:23.589Z,73.23
2022-08-25T20:40:52.290Z,73.42
2022-08-25T20:43:35.215Z,73.49
2022-08-25T20:46:07.727Z,73.54
2022-08-25T20:48:38.586Z,73.62
2022-08-25T20:51:09.253Z,73.64
2022-08-25T20:53:52.475Z,73.62
2022-08-25T20:56:21.236Z,73.74
2022-08-25T20:58:50.648Z,73.64
2022-08-25T21:01:23.421Z,73.61
2022-08-25T21:04:08.261Z,73.82
2022-08-25T21:06:39.516Z,73.83
2022-08-25T21:09:15.775Z,73.92
2022-08-25T21:11:59.458Z,73.94
2022-08-25T21:14:29.776Z,73.83
2022-08-25T21:16:59.091Z,73.93
2022-08-25T21:19:30.085Z,73.91
2022-08-25T21:22:01.168Z,73.83
2022-08-25T21:24:30.624Z,74.14
2022-08-25T21:27:01.299Z,74.13
2022-08-25T21:29:32.278Z,74.14
2022-08-25T21:32:01.663Z,74.22
2022-08-25T21:34:44.120Z,74.26
2022-08-25T21:37:28.181Z,74.40
2022-08-25T21:39:58.286Z,74.30
2022-08-25T21:42:27.699Z,74.37
2022-08-25T21:44:57.953Z,74.44
2022-08-25T21:47:27.153Z,74.41
2022-08-25T21:49:56.943Z,74.52
2022-08-25T21:52:25.814Z,74.52
2022-08-25T21:54:54.853Z,74.73
2022-08-25T21:57:25.889Z,74.55
2022-08-25T21:59:57.964Z,74.68
2022-08-25T22:02:28.011Z,74.72
2022-08-25T22:05:11.739Z,74.77
2022-08-25T22:07:44.241Z,74.72
2022-08-25T22:10:28.250Z,74.65
2022-08-25T22:12:57.875Z,74.72
2022-08-25T22:15:27.624Z,74.81
2022-08-25T22:17:56.688Z,74.94
2022-08-25T22:20:26.395Z,75.02
2022-08-25T22:23:03.448Z,74.77
2022-08-25T22:25:46.984Z,74.81
2022-08-25T22:28:17.755Z,75.06
2022-08-25T22:30:46.952Z,74.99
2022-08-25T22:33:31.742Z,75.10
2022-08-25T22:36:17.150Z,75.12
2022-08-25T22:38:49.567Z,74.94
2022-08-25T22:41:21.731Z,75.17
2022-08-25T22:43:52.959Z,74.98
2022-08-25T22:46:24.157Z,75.09
2022-08-25T22:48:55.343Z,74.94
2022-08-25T22:51:28.450Z,75.11
2022-08-25T22:54:00.296Z,75.19
2022-08-25T22:56:36.060Z,75.19
2022-08-25T22:59:09.266Z,75.31
2022-08-25T23:01:54.945Z,75.31
2022-08-25T23:04:41.229Z,75.29
2022-08-25T23:07:13.134Z,75.31
2022-08-25T23:09:57.714Z,75.39
2022-08-25T23:12:28.262Z,75.47
2022-08-25T23:14:57.714Z,75.43
2022-08-25T23:17:29.862Z,75.62
2022-08-25T23:19:59.433Z,75.66
2022-08-25T23:22:29.415Z,75.74
2022-08-25T23:24:59.528Z,75.78
2022-08-25T23:27:28.760Z,75.87
2022-08-25T23:29:58.213Z,75.89
2022-08-25T23:32:28.231Z,75.98
2022-08-25T23:34:57.563Z,75.99
2022-08-25T23:37:27.386Z,76.13
2022-08-25T23:39:58.637Z,76.26
2022-08-25T23:45:11.350Z,76.42
2022-08-25T23:47:54.366Z,76.58
2022-08-25T23:50:23.949Z,76.76
2022-08-25T23:52:54.564Z,76.79
2022-08-25T23:55:24.235Z,76.82
2022-08-25T23:57:53.664Z,76.85
